Time;durP1;ratioP1;P1;durP2;ratioP2;P2;SDS_P1;SDS_P2;PMS_P1;PMS_P2;Temp;Humidity;BMP_temperature;BMP_pressure;BME280_temperature;BME280_humidity;BME280_pressure;Samples;Min_cycle;Max_cycle;Signal;HPM_P1;HPM_P2
2023/06/19 00:00:12;;;;;;;4.90;4.13;;;26.80;61.20;;;;;;5075086;28;20205;-55
2023/06/19 00:02:40;;;;;;;7.40;3.83;;;26.80;61.40;;;;;;5074877;28;20307;-54
2023/06/19 00:05:07;;;;;;;5.95;4.20;;;26.80;61.60;;;;;;5074782;28;20316;-54
2023/06/19 00:07:34;;;;;;;4.97;4.45;;;26.80;61.90;;;;;;5074628;28;20212;-55
2023/06/19 00:10:01;;;;;;;6.85;4.30;;;26.70;61.90;;;;;;5074538;28;20233;-55
2023/06/19 00:12:28;;;;;;;8.27;4.60;;;26.60;62.00;;;;;;5075008;28;20208;-53
2023/06/19 00:14:54;;;;;;;5.80;4.28;;;26.60;62.30;;;;;;5074037;28;20270;-55
2023/06/19 00:17:26;;;;;;;5.68;4.30;;;26.50;62.50;;;;;;5073992;28;20209;-54
2023/06/19 00:19:53;;;;;;;6.40;4.70;;;26.50;62.60;;;;;;5074532;28;20200;-57
2023/06/19 00:22:19;;;;;;;5.05;4.40;;;26.40;63.10;;;;;;5074299;28;20246;-54
2023/06/19 00:24:46;;;;;;;5.28;4.22;;;26.30;63.50;;;;;;5073968;28;20232;-54
2023/06/19 00:27:13;;;;;;;7.80;4.70;;;26.30;63.60;;;;;;5073915;28;20296;-54
2023/06/19 00:29:39;;;;;;;7.32;4.35;;;26.30;63.60;;;;;;5074492;28;20258;-54
2023/06/19 00:32:07;;;;;;;5.15;4.65;;;26.30;63.60;;;;;;5074252;28;20216;-54
2023/06/19 00:34:36;;;;;;;5.82;3.90;;;26.20;64.10;;;;;;5074263;28;20278;-54
2023/06/19 00:37:03;;;;;;;5.75;4.28;;;26.20;64.60;;;;;;5073898;28;20216;-54
2023/06/19 00:39:30;;;;;;;5.55;4.38;;;26.20;64.70;;;;;;5074008;28;20201;-54
2023/06/19 00:41:57;;;;;;;6.88;4.50;;;26.20;65.00;;;;;;5073797;28;20205;-55
2023/06/19 00:44:24;;;;;;;7.25;4.35;;;26.20;65.20;;;;;;5073995;28;20225;-55
2023/06/19 00:46:54;;;;;;;7.00;4.47;;;26.20;65.50;;;;;;5073801;28;20248;-54
2023/06/19 00:49:21;;;;;;;5.00;4.47;;;26.20;65.60;;;;;;5074197;28;20477;-54
2023/06/19 00:51:49;;;;;;;5.75;4.80;;;26.20;65.60;;;;;;5073720;28;20586;-54
2023/06/19 00:54:17;;;;;;;6.03;4.55;;;26.20;65.80;;;;;;5072491;28;20229;-54
2023/06/19 00:56:45;;;;;;;6.25;4.68;;;26.20;65.80;;;;;;5073527;28;20205;-54
2023/06/19 00:59:16;;;;;;;6.32;4.95;;;26.20;66.40;;;;;;5073821;28;20205;-56
2023/06/19 01:01:44;;;;;;;6.22;4.78;;;26.20;66.40;;;;;;5073856;28;20281;-57
2023/06/19 01:04:11;;;;;;;5.22;4.60;;;26.20;66.40;;;;;;5074054;28;20287;-54
2023/06/19 01:06:47;;;;;;;4.97;4.57;;;26.10;66.80;;;;;;5073753;28;20208;-54
2023/06/19 01:09:18;;;;;;;7.85;4.78;;;26.10;66.90;;;;;;5073890;28;20205;-55
2023/06/19 01:11:48;;;;;;;5.07;4.55;;;26.00;66.90;;;;;;5073637;28;20215;-54
2023/06/19 01:14:19;;;;;;;5.30;4.80;;;26.00;66.90;;;;;;5073772;28;20238;-54
2023/06/19 01:16:47;;;;;;;5.90;4.25;;;26.00;66.90;;;;;;5073376;28;20300;-54
2023/06/19 01:19:18;;;;;;;6.40;4.35;;;26.00;67.20;;;;;;5073421;28;20217;-54
2023/06/19 01:21:45;;;;;;;8.95;4.82;;;25.90;67.80;;;;;;5074642;28;20208;-54
2023/06/19 01:24:17;;;;;;;7.65;4.97;;;25.90;68.20;;;;;;5074360;28;20291;-59
2023/06/19 01:26:45;;;;;;;8.13;4.65;;;25.80;69.20;;;;;;5072855;28;20671;-58
2023/06/19 01:29:14;;;;;;;9.45;5.00;;;25.80;69.30;;;;;;5073044;28;20216;-57
2023/06/19 01:31:49;;;;;;;5.75;4.93;;;25.70;69.80;;;;;;5072839;28;20591;-56
2023/06/19 01:34:20;;;;;;;8.88;5.07;;;25.60;71.60;;;;;;5072999;28;20294;-57
2023/06/19 01:36:47;;;;;;;7.70;4.47;;;25.50;71.40;;;;;;5073140;28;20244;-56
2023/06/19 01:39:17;;;;;;;5.40;4.28;;;25.40;71.10;;;;;;5072872;28;20213;-55
2023/06/19 01:41:44;;;;;;;7.90;4.53;;;25.20;71.10;;;;;;5072708;28;20640;-56
2023/06/19 01:44:11;;;;;;;5.90;4.65;;;25.10;71.30;;;;;;5072886;28;20667;-57
2023/06/19 01:46:38;;;;;;;4.07;3.72;;;25.10;71.60;;;;;;5072475;28;20211;-57
2023/06/19 01:49:07;;;;;;;5.43;3.35;;;25.00;71.60;;;;;;5072668;28;20207;-56
2023/06/19 01:51:34;;;;;;;7.40;3.83;;;25.00;72.00;;;;;;5072614;28;20212;-57
2023/06/19 01:54:00;;;;;;;7.03;3.40;;;24.90;72.00;;;;;;5072541;28;20304;-56
2023/06/19 01:56:29;;;;;;;5.90;3.25;;;24.90;72.50;;;;;;5072317;28;20212;-57
2023/06/19 01:58:56;;;;;;;3.75;3.40;;;24.90;72.70;;;;;;5072521;28;20208;-57
2023/06/19 02:01:22;;;;;;;3.97;3.25;;;24.80;72.90;;;;;;5072643;28;20201;-57
2023/06/19 02:03:49;;;;;;;3.38;3.08;;;24.80;73.10;;;;;;5072463;28;20204;-57
2023/06/19 02:06:16;;;;;;;6.75;3.38;;;24.80;73.40;;;;;;5071964;28;20224;-57
2023/06/19 02:08:42;;;;;;;8.38;3.40;;;24.70;73.50;;;;;;5071990;28;20219;-58
2023/06/19 02:11:09;;;;;;;3.80;3.25;;;24.70;73.60;;;;;;5071832;28;20205;-56
2023/06/19 02:13:37;;;;;;;5.28;3.80;;;24.80;73.50;;;;;;5072269;28;20262;-57
2023/06/19 02:16:04;;;;;;;5.15;3.25;;;24.80;73.90;;;;;;5071324;28;20229;-57
2023/06/19 02:18:31;;;;;;;4.13;3.70;;;24.80;74.00;;;;;;5072409;28;20210;-57
2023/06/19 02:20:57;;;;;;;4.82;3.88;;;24.80;74.30;;;;;;5071891;28;20209;-56
2023/06/19 02:23:25;;;;;;;4.72;3.58;;;24.70;75.00;;;;;;5072208;28;20217;-57
2023/06/19 02:25:52;;;;;;;4.75;3.45;;;24.60;75.50;;;;;;5071333;28;20233;-56
2023/06/19 02:28:18;;;;;;;4.32;3.60;;;24.70;75.50;;;;;;5072074;28;20212;-58
2023/06/19 02:30:46;;;;;;;4.28;3.65;;;24.60;76.00;;;;;;5072038;28;20212;-57
2023/06/19 02:33:14;;;;;;;4.07;3.45;;;24.60;76.10;;;;;;5071979;28;20735;-58
2023/06/19 02:35:41;;;;;;;3.60;3.17;;;24.60;76.50;;;;;;5071725;28;20686;-57
2023/06/19 02:38:08;;;;;;;3.45;3.15;;;24.60;77.40;;;;;;5071377;28;20618;-56
2023/06/19 02:40:35;;;;;;;4.50;3.33;;;24.50;77.90;;;;;;5071548;28;20205;-57
2023/06/19 02:43:01;;;;;;;7.60;3.05;;;24.50;78.50;;;;;;5071592;28;20229;-57
2023/06/19 02:45:28;;;;;;;4.65;3.60;;;24.50;78.70;;;;;;5072038;28;20229;-57
2023/06/19 02:47:56;;;;;;;5.05;3.30;;;24.50;79.00;;;;;;5071526;28;20263;-57
2023/06/19 02:50:23;;;;;;;3.97;2.88;;;24.50;79.70;;;;;;5071337;28;20205;-57
2023/06/19 02:52:50;;;;;;;3.53;3.22;;;24.50;80.10;;;;;;5071516;28;20205;-56
2023/06/19 02:55:17;;;;;;;6.10;3.10;;;24.40;80.80;;;;;;5071095;28;20232;-57
2023/06/19 02:57:44;;;;;;;4.50;3.05;;;24.50;81.20;;;;;;5071025;28;20724;-56
2023/06/19 03:00:12;;;;;;;3.42;3.13;;;24.50;81.30;;;;;;5071712;28;20250;-57
2023/06/19 03:02:43;;;;;;;3.58;3.13;;;24.50;81.60;;;;;;5071449;28;20205;-56
2023/06/19 03:05:14;;;;;;;5.70;3.28;;;24.50;81.90;;;;;;5071465;28;20290;-57
2023/06/19 03:07:41;;;;;;;4.47;3.70;;;24.50;82.10;;;;;;5070859;28;20289;-56
2023/06/19 03:10:08;;;;;;;3.97;3.13;;;24.50;82.20;;;;;;5071397;28;20201;-57
2023/06/19 03:12:35;;;;;;;4.82;3.10;;;24.50;82.50;;;;;;5071627;28;20205;-57
2023/06/19 03:15:01;;;;;;;6.28;3.20;;;24.50;82.70;;;;;;5071057;28;20225;-57
2023/06/19 03:17:28;;;;;;;3.75;3.25;;;24.50;83.00;;;;;;5074615;28;20211;-57
2023/06/19 03:19:55;;;;;;;6.55;3.50;;;24.40;83.30;;;;;;5077913;28;20212;-56
2023/06/19 03:22:23;;;;;;;3.80;3.38;;;24.40;83.40;;;;;;5077729;28;20200;-56
2023/06/19 03:24:49;;;;;;;5.53;3.10;;;24.50;83.60;;;;;;5077743;28;20240;-57
2023/06/19 03:27:16;;;;;;;4.35;3.35;;;24.50;83.70;;;;;;5077618;28;20208;-56
2023/06/19 03:29:43;;;;;;;4.00;3.30;;;24.50;84.10;;;;;;5077506;28;20208;-56
2023/06/19 03:32:10;;;;;;;3.70;3.17;;;24.50;84.10;;;;;;5077879;28;20273;-56
2023/06/19 03:34:36;;;;;;;5.55;3.38;;;24.50;84.50;;;;;;5077343;28;20225;-58
2023/06/19 03:37:03;;;;;;;4.15;3.28;;;24.50;84.50;;;;;;5077576;28;20212;-57
2023/06/19 03:39:31;;;;;;;4.63;3.85;;;24.50;84.50;;;;;;5077678;28;20265;-58
2023/06/19 03:41:58;;;;;;;7.38;3.60;;;24.50;84.20;;;;;;5077787;28;20200;-58
2023/06/19 03:44:24;;;;;;;4.63;3.47;;;24.60;83.80;;;;;;5077559;28;20224;-57
2023/06/19 03:46:51;;;;;;;5.05;3.42;;;24.60;83.70;;;;;;5077201;28;20204;-58
2023/06/19 03:49:18;;;;;;;4.63;3.10;;;24.70;83.80;;;;;;5077251;28;20212;-58
2023/06/19 03:51:45;;;;;;;3.95;3.13;;;24.70;83.60;;;;;;5077982;28;20243;-57
2023/06/19 03:54:12;;;;;;;3.95;3.55;;;24.70;83.60;;;;;;5077801;28;20209;-57
2023/06/19 03:56:40;;;;;;;3.72;3.20;;;24.60;83.70;;;;;;5077238;28;20597;-58
2023/06/19 03:59:07;;;;;;;4.50;3.75;;;24.70;83.80;;;;;;5077367;28;20696;-57
2023/06/19 04:01:33;;;;;;;5.05;3.63;;;24.60;84.30;;;;;;5077424;28;20578;-57
2023/06/19 04:04:00;;;;;;;4.03;3.50;;;24.50;84.80;;;;;;5077029;28;20240;-57
2023/06/19 04:06:27;;;;;;;4.10;3.60;;;24.50;85.20;;;;;;5077277;28;20201;-58
2023/06/19 04:08:53;;;;;;;4.70;3.33;;;24.50;85.50;;;;;;5077570;28;20209;-57
2023/06/19 04:11:20;;;;;;;3.83;3.10;;;24.50;85.60;;;;;;5077305;28;20571;-56
2023/06/19 04:13:48;;;;;;;5.85;3.00;;;24.50;86.20;;;;;;5077394;28;20215;-57
2023/06/19 04:16:15;;;;;;;4.85;3.10;;;24.50;86.30;;;;;;5076867;28;20316;-57
2023/06/19 04:18:41;;;;;;;4.93;4.40;;;24.60;86.60;;;;;;5077460;28;20288;-57
2023/06/19 04:21:08;;;;;;;8.82;3.20;;;24.60;86.70;;;;;;5077531;28;20234;-56
2023/06/19 04:23:35;;;;;;;3.28;2.83;;;24.70;86.80;;;;;;5077488;28;20213;-58
2023/06/19 04:26:02;;;;;;;4.55;3.47;;;24.80;86.50;;;;;;5076935;28;20722;-57
2023/06/19 04:28:28;;;;;;;3.67;2.80;;;24.80;86.50;;;;;;5076334;28;20215;-56
2023/06/19 04:31:00;;;;;;;3.85;3.03;;;24.80;86.40;;;;;;5073910;28;20215;-57
2023/06/19 04:33:27;;;;;;;4.53;2.97;;;24.80;86.60;;;;;;5074192;28;20204;-57
2023/06/19 04:35:53;;;;;;;3.90;3.20;;;24.80;86.80;;;;;;5073963;28;20233;-57
2023/06/19 04:38:23;;;;;;;4.25;2.83;;;24.80;87.10;;;;;;5074115;28;20251;-58
2023/06/19 04:40:50;;;;;;;5.13;3.00;;;24.80;87.30;;;;;;5073792;28;20254;-58
2023/06/19 04:43:17;;;;;;;5.07;3.00;;;24.90;87.20;;;;;;5073706;28;20218;-57
2023/06/19 04:45:44;;;;;;;5.10;2.60;;;25.00;86.90;;;;;;5073365;28;20228;-58
2023/06/19 04:48:12;;;;;;;5.32;2.53;;;25.00;86.60;;;;;;5073899;28;20208;-58
2023/06/19 04:50:38;;;;;;;2.88;2.58;;;25.10;87.00;;;;;;5073854;28;20201;-57
2023/06/19 04:53:05;;;;;;;2.55;2.35;;;25.20;86.10;;;;;;5073971;28;20239;-56
2023/06/19 04:55:33;;;;;;;3.58;2.80;;;25.20;86.10;;;;;;5073293;28;20260;-58
2023/06/19 04:57:59;;;;;;;3.45;2.30;;;25.20;86.60;;;;;;5073806;28;20250;-57
2023/06/19 05:00:26;;;;;;;4.07;2.50;;;25.20;86.50;;;;;;5073731;28;20204;-57
2023/06/19 05:02:53;;;;;;;4.60;2.70;;;25.30;86.30;;;;;;5073569;28;20208;-57
2023/06/19 05:05:21;;;;;;;3.53;2.78;;;25.40;86.30;;;;;;5073272;28;20252;-57
2023/06/19 05:07:48;;;;;;;4.60;2.63;;;25.40;86.30;;;;;;5073012;28;20634;-58
2023/06/19 05:10:15;;;;;;;6.22;2.85;;;25.40;86.10;;;;;;5073195;28;20678;-56
2023/06/19 05:12:42;;;;;;;4.47;2.63;;;25.60;85.90;;;;;;5073055;28;20209;-55
2023/06/19 05:15:09;;;;;;;4.05;2.85;;;25.70;85.40;;;;;;5073254;28;20260;-57
2023/06/19 05:17:38;;;;;;;6.38;2.78;;;25.90;84.80;;;;;;5073328;28;20686;-58
2023/06/19 05:20:06;;;;;;;2.78;2.58;;;26.10;84.40;;;;;;5073329;28;20236;-58
2023/06/19 05:22:36;;;;;;;4.05;2.25;;;26.30;83.70;;;;;;5073368;28;20228;-58
2023/06/19 05:25:03;;;;;;;4.00;3.00;;;26.50;83.00;;;;;;5073024;28;20298;-57
2023/06/19 05:27:30;;;;;;;3.75;2.60;;;26.90;82.00;;;;;;5072939;28;20239;-57
2023/06/19 05:29:57;;;;;;;3.78;2.60;;;27.20;80.80;;;;;;5073042;28;20204;-57
2023/06/19 05:32:23;;;;;;;4.75;2.60;;;27.70;79.50;;;;;;5073286;28;20272;-57
2023/06/19 05:34:50;;;;;;;5.38;2.65;;;28.80;76.80;;;;;;5072917;28;20225;-57
2023/06/19 05:37:17;;;;;;;2.50;2.20;;;30.30;72.70;;;;;;5072442;28;20374;-57
2023/06/19 05:39:45;;;;;;;4.18;3.40;;;31.40;68.60;;;;;;5072105;28;20209;-58
2023/06/19 05:42:12;;;;;;;5.70;2.35;;;32.20;66.30;;;;;;5073044;28;20208;-58
2023/06/19 05:44:40;;;;;;;3.58;2.60;;;32.90;63.50;;;;;;5072591;28;20307;-57
2023/06/19 05:47:07;;;;;;;2.42;2.22;;;33.50;61.50;;;;;;5072638;28;20201;-57
2023/06/19 05:49:33;;;;;;;2.67;2.33;;;34.20;59.70;;;;;;5072641;28;20212;-58
2023/06/19 05:52:01;;;;;;;2.42;2.10;;;34.70;58.30;;;;;;5072507;28;20221;-58
2023/06/19 05:54:27;;;;;;;3.75;2.30;;;35.50;57.20;;;;;;5072399;28;20419;-58
2023/06/19 05:56:55;;;;;;;2.33;2.13;;;36.10;55.70;;;;;;5072083;28;20225;-58
2023/06/19 05:59:22;;;;;;;2.65;2.45;;;36.40;54.50;;;;;;5070769;28;20205;-58
2023/06/19 06:01:50;;;;;;;5.75;2.70;;;36.30;54.60;;;;;;5068269;28;20225;-64
2023/06/19 06:04:17;;;;;;;3.17;2.28;;;36.30;54.60;;;;;;5071675;28;20228;-63
2023/06/19 06:06:43;;;;;;;2.80;2.40;;;36.30;53.90;;;;;;5071727;28;20220;-62
2023/06/19 06:09:11;;;;;;;2.40;2.20;;;35.90;54.70;;;;;;5071966;28;20209;-62
2023/06/19 06:11:38;;;;;;;2.88;2.42;;;35.10;55.70;;;;;;5071769;28;20209;-61
2023/06/19 06:14:06;;;;;;;3.83;3.05;;;34.20;57.10;;;;;;5072096;28;20592;-59
2023/06/19 06:16:33;;;;;;;5.25;2.47;;;33.50;58.50;;;;;;5071032;28;20591;-61
2023/06/19 06:19:00;;;;;;;5.65;2.70;;;32.90;59.60;;;;;;5071862;28;20212;-63
2023/06/19 06:21:27;;;;;;;2.92;2.60;;;32.50;60.80;;;;;;5071385;28;20209;-61
2023/06/19 06:23:54;;;;;;;3.45;2.55;;;32.10;62.00;;;;;;5071933;28;20205;-62
2023/06/19 06:26:21;;;;;;;3.60;2.80;;;31.90;62.50;;;;;;5071077;28;20213;-61
2023/06/19 06:28:48;;;;;;;3.55;2.70;;;31.50;63.60;;;;;;5071663;28;20208;-60
2023/06/19 06:31:16;;;;;;;3.63;2.83;;;31.20;64.50;;;;;;5071712;28;20205;-61
2023/06/19 06:33:43;;;;;;;3.25;2.50;;;30.90;65.50;;;;;;5071855;28;20546;-60
2023/06/19 06:36:10;;;;;;;3.95;2.55;;;30.70;66.10;;;;;;5071322;28;20247;-60
2023/06/19 06:38:37;;;;;;;2.50;2.30;;;30.60;67.00;;;;;;5071591;28;20291;-60
2023/06/19 06:41:03;;;;;;;2.90;2.60;;;30.70;66.90;;;;;;5071151;28;20205;-60
2023/06/19 06:43:30;;;;;;;2.75;2.38;;;31.00;66.60;;;;;;5071403;28;20208;-60
2023/06/19 06:45:57;;;;;;;8.98;3.00;;;31.00;66.50;;;;;;5071153;28;20228;-61
2023/06/19 06:48:25;;;;;;;4.85;2.67;;;31.00;66.40;;;;;;5071487;28;20715;-59
2023/06/19 06:50:58;;;;;;;7.78;2.60;;;31.00;64.70;;;;;;5071150;28;20662;-64
2023/06/19 06:53:25;;;;;;;4.30;2.55;;;31.10;65.00;;;;;;5070457;28;20212;-58
2023/06/19 06:55:52;;;;;;;4.53;2.28;;;31.90;64.40;;;;;;5070939;28;20247;-58
2023/06/19 06:58:19;;;;;;;2.92;2.33;;;33.40;61.30;;;;;;5071100;28;20739;-58
2023/06/19 07:00:45;;;;;;;3.65;2.38;;;35.00;58.60;;;;;;5071179;28;20216;-56
2023/06/19 07:03:13;;;;;;;2.60;2.40;;;36.40;55.90;;;;;;5071191;28;20216;-56
2023/06/19 07:05:41;;;;;;;3.33;2.28;;;38.10;53.80;;;;;;5070792;28;20255;-56
2023/06/19 07:08:08;;;;;;;2.30;2.10;;;39.50;51.30;;;;;;5070862;28;20583;-56
2023/06/19 07:10:34;;;;;;;3.58;2.20;;;40.60;49.70;;;;;;5070745;28;20702;-57
2023/06/19 07:13:01;;;;;;;4.07;2.65;;;41.40;47.90;;;;;;5070877;28;20581;-56
2023/06/19 07:15:28;;;;;;;2.10;1.90;;;42.00;46.80;;;;;;5070781;28;20251;-56
2023/06/19 07:17:54;;;;;;;5.40;2.10;;;42.80;45.70;;;;;;5070925;28;20232;-56
2023/06/19 07:20:21;;;;;;;1.73;1.60;;;43.40;45.00;;;;;;5070964;28;20206;-56
2023/06/19 07:22:52;;;;;;;2.10;1.90;;;43.90;44.20;;;;;;5071102;28;20208;-58
2023/06/19 07:25:19;;;;;;;3.13;1.83;;;44.30;43.20;;;;;;5071716;28;20238;-59
2023/06/19 07:27:46;;;;;;;4.75;2.08;;;44.70;42.30;;;;;;5070865;28;20203;-60
2023/06/19 07:30:14;;;;;;;1.73;1.63;;;44.80;42.00;;;;;;5071104;28;20204;-59
2023/06/19 07:32:41;;;;;;;3.15;1.52;;;44.80;42.00;;;;;;5070958;28;20235;-62
2023/06/19 07:35:09;;;;;;;5.13;2.00;;;45.00;41.40;;;;;;5071221;28;20224;-61
2023/06/19 07:37:35;;;;;;;1.95;1.80;;;45.70;40.50;;;;;;5070790;28;20318;-59
2023/06/19 07:40:05;;;;;;;2.95;1.83;;;46.30;40.20;;;;;;5070971;28;20605;-56
2023/06/19 07:42:32;;;;;;;2.17;1.98;;;46.20;39.90;;;;;;5070428;28;20215;-57
2023/06/19 07:44:58;;;;;;;2.38;1.58;;;45.60;40.40;;;;;;5071283;28;20531;-57
2023/06/19 07:47:27;;;;;;;2.95;1.80;;;44.20;41.20;;;;;;5070771;28;20204;-61
2023/06/19 07:49:53;;;;;;;3.65;1.80;;;42.60;42.90;;;;;;5070864;28;20208;-60
2023/06/19 07:52:20;;;;;;;2.08;1.80;;;40.90;44.90;;;;;;5070596;28;20235;-62
2023/06/19 07:54:52;;;;;;;6.13;1.90;;;39.40;46.70;;;;;;5070396;28;20224;-62
2023/06/19 07:57:21;;;;;;;2.25;2.00;;;38.30;48.30;;;;;;5069954;28;20229;-60
2023/06/19 07:59:48;;;;;;;6.57;1.95;;;37.20;49.50;;;;;;5070854;28;20209;-58
2023/06/19 08:02:15;;;;;;;2.58;1.73;;;36.60;50.70;;;;;;5070661;28;20659;-61
2023/06/19 08:04:41;;;;;;;1.60;1.50;;;35.90;51.50;;;;;;5073778;28;20259;-62
2023/06/19 08:07:08;;;;;;;3.92;1.70;;;35.20;52.60;;;;;;5073862;28;20212;-60
2023/06/19 08:09:35;;;;;;;4.75;1.85;;;34.70;53.60;;;;;;5074587;28;20291;-62
2023/06/19 08:12:02;;;;;;;2.13;1.50;;;34.20;54.40;;;;;;5074264;28;20211;-61
2023/06/19 08:14:30;;;;;;;4.65;1.90;;;34.30;54.70;;;;;;5074387;28;20622;-61
2023/06/19 08:16:56;;;;;;;5.22;2.00;;;35.10;53.80;;;;;;5074245;28;20225;-60
2023/06/19 08:19:23;;;;;;;2.33;1.70;;;35.70;52.20;;;;;;5074267;28;20209;-61
2023/06/19 08:21:50;;;;;;;1.60;1.50;;;36.00;51.80;;;;;;5074098;28;20212;-62
2023/06/19 08:24:17;;;;;;;4.20;1.73;;;36.60;51.40;;;;;;5074032;28;20260;-61
2023/06/19 08:26:44;;;;;;;2.20;1.58;;;36.80;50.80;;;;;;5074216;28;20201;-62
2023/06/19 08:29:10;;;;;;;7.05;1.80;;;36.50;51.30;;;;;;5074359;28;20220;-62
2023/06/19 08:31:39;;;;;;;3.42;1.80;;;36.10;51.80;;;;;;5073456;28;20212;-62
2023/06/19 08:34:09;;;;;;;2.25;1.50;;;35.80;52.30;;;;;;5073877;28;20209;-58
2023/06/19 08:36:35;;;;;;;1.50;1.40;;;36.30;51.60;;;;;;5074008;28;20311;-61
2023/06/19 08:39:03;;;;;;;2.17;1.25;;;37.70;49.50;;;;;;5073795;28;20220;-61
2023/06/19 08:41:30;;;;;;;1.63;1.25;;;38.70;48.20;;;;;;5073836;28;20233;-64
2023/06/19 08:43:57;;;;;;;2.72;1.38;;;38.90;47.50;;;;;;5068141;28;20635;-64
2023/06/19 08:46:24;;;;;;;1.98;1.50;;;38.80;47.60;;;;;;5073503;28;20197;-63
2023/06/19 08:48:55;;;;;;;2.08;1.30;;;39.40;46.70;;;;;;5073696;28;20209;-65
2023/06/19 08:51:22;;;;;;;1.52;1.42;;;39.80;46.10;;;;;;5073553;28;20209;-61
2023/06/19 08:53:54;;;;;;;1.60;1.42;;;39.70;45.90;;;;;;5073842;28;20213;-60
2023/06/19 08:56:21;;;;;;;2.00;1.58;;;39.30;46.60;;;;;;5073134;28;20821;-65
2023/06/19 08:58:48;;;;;;;1.50;1.40;;;38.40;47.70;;;;;;5074128;28;20228;-60
2023/06/19 09:01:18;;;;;;;2.25;1.58;;;37.40;48.90;;;;;;5073550;28;20205;-61
2023/06/19 09:03:46;;;;;;;1.42;1.33;;;36.50;49.80;;;;;;5073180;28;20228;-61
2023/06/19 09:06:16;;;;;;;3.08;1.30;;;35.40;51.20;;;;;;5073242;28;20317;-62
2023/06/19 09:08:43;;;;;;;1.80;1.60;;;34.50;52.90;;;;;;5073419;28;20243;-62
2023/06/19 09:11:09;;;;;;;2.28;1.60;;;33.70;54.40;;;;;;5073146;28;20200;-66
2023/06/19 09:13:36;;;;;;;2.17;1.50;;;33.20;55.10;;;;;;5072817;28;20213;-61
2023/06/19 09:16:05;;;;;;;2.08;1.88;;;33.10;55.80;;;;;;5071705;28;20229;-62
2023/06/19 09:18:33;;;;;;;2.28;1.63;;;33.30;55.80;;;;;;5072888;28;20229;-65
2023/06/19 09:21:00;;;;;;;2.58;1.75;;;33.20;56.00;;;;;;5073171;28;20255;-62
2023/06/19 09:23:28;;;;;;;1.70;1.50;;;32.90;56.70;;;;;;5073257;28;20615;-62
2023/06/19 09:25:58;;;;;;;2.30;1.55;;;32.70;56.90;;;;;;5072678;28;20714;-64
2023/06/19 09:28:26;;;;;;;1.77;1.67;;;32.30;57.60;;;;;;5073072;28;20200;-63
2023/06/19 09:30:54;;;;;;;1.73;1.63;;;31.90;58.10;;;;;;5072453;28;20205;-61
2023/06/19 09:33:21;;;;;;;2.00;1.70;;;31.60;59.30;;;;;;5072689;28;20205;-66
2023/06/19 09:35:50;;;;;;;3.50;2.20;;;31.40;59.70;;;;;;5072505;28;20233;-60
2023/06/19 09:38:18;;;;;;;1.90;1.80;;;31.30;60.10;;;;;;5072937;28;20573;-62
2023/06/19 09:40:48;;;;;;;3.22;2.05;;;31.10;60.70;;;;;;5072648;28;20321;-62
2023/06/19 09:43:23;;;;;;;1.90;1.80;;;31.10;61.00;;;;;;5072602;28;20589;-60
2023/06/19 09:45:51;;;;;;;2.08;1.88;;;31.20;60.40;;;;;;5072530;28;20231;-61
2023/06/19 09:48:21;;;;;;;3.35;1.80;;;31.20;59.40;;;;;;5072506;28;20251;-60
2023/06/19 09:50:51;;;;;;;2.05;1.85;;;31.10;60.40;;;;;;5072623;28;20239;-60
2023/06/19 09:53:19;;;;;;;2.35;2.00;;;31.00;60.60;;;;;;5072422;28;20654;-60
2023/06/19 09:55:50;;;;;;;2.10;1.92;;;31.00;61.50;;;;;;5072150;28;20263;-61
2023/06/19 09:58:17;;;;;;;3.20;2.90;;;31.10;62.10;;;;;;5072710;28;20235;-61
2023/06/19 10:00:45;;;;;;;3.10;2.20;;;31.20;61.30;;;;;;5072999;28;20292;-60
2023/06/19 10:03:13;;;;;;;2.63;1.90;;;31.30;61.00;;;;;;5072549;28;20216;-63
2023/06/19 10:05:40;;;;;;;2.20;1.95;;;31.40;60.60;;;;;;5072186;28;20221;-60
2023/06/19 10:08:08;;;;;;;2.65;2.10;;;31.40;60.60;;;;;;5072328;28;20229;-60
2023/06/19 10:10:36;;;;;;;3.22;1.92;;;31.40;61.50;;;;;;5072039;28;20240;-61
2023/06/19 10:13:14;;;;;;;2.45;1.95;;;31.50;60.20;;;;;;5072397;28;20232;-61
2023/06/19 10:15:42;;;;;;;2.10;1.90;;;31.60;60.20;;;;;;5071953;28;20233;-61
2023/06/19 10:18:13;;;;;;;3.58;2.20;;;31.70;59.80;;;;;;5071892;28;20310;-61
2023/06/19 10:20:41;;;;;;;6.15;1.95;;;31.80;59.80;;;;;;5071897;28;20201;-60
2023/06/19 10:23:09;;;;;;;3.05;2.35;;;32.00;59.70;;;;;;5071709;28;20297;-61
2023/06/19 10:25:37;;;;;;;2.40;2.17;;;32.30;59.30;;;;;;5071574;28;20286;-59
2023/06/19 10:28:07;;;;;;;5.35;2.13;;;32.60;58.90;;;;;;5071342;28;20205;-59
2023/06/19 10:30:35;;;;;;;3.20;2.00;;;32.80;57.60;;;;;;5071699;28;20205;-60
2023/06/19 10:33:03;;;;;;;3.20;1.92;;;33.10;57.10;;;;;;5071983;28;20208;-60
2023/06/19 10:35:38;;;;;;;2.40;2.20;;;33.30;56.80;;;;;;5071776;28;20224;-60
2023/06/19 10:38:05;;;;;;;7.70;2.25;;;33.30;58.30;;;;;;5071694;28;20224;-60
2023/06/19 10:40:32;;;;;;;4.50;2.22;;;33.30;58.40;;;;;;5071562;28;20243;-60
2023/06/19 10:42:58;;;;;;;2.90;2.60;;;33.00;59.40;;;;;;5071805;28;20216;-59
2023/06/19 10:45:28;;;;;;;4.95;2.40;;;32.60;59.60;;;;;;5071531;28;20718;-63
2023/06/19 10:47:57;;;;;;;2.45;2.25;;;32.60;59.50;;;;;;5071296;28;20201;-59
2023/06/19 10:50:24;;;;;;;3.35;2.30;;;32.60;58.90;;;;;;5071556;28;20705;-59
2023/06/19 10:52:55;;;;;;;3.08;2.60;;;32.60;59.20;;;;;;5071921;28;20208;-59
2023/06/19 10:55:22;;;;;;;2.95;2.20;;;32.50;59.10;;;;;;5071812;28;20263;-59
2023/06/19 10:57:49;;;;;;;3.25;2.20;;;32.60;58.80;;;;;;5071362;28;20220;-60
2023/06/19 11:00:24;;;;;;;2.97;1.98;;;32.70;59.10;;;;;;5071782;28;20205;-59
2023/06/19 11:02:51;;;;;;;3.30;2.20;;;32.70;59.20;;;;;;5071689;28;20204;-59
2023/06/19 11:05:22;;;;;;;2.33;2.13;;;32.80;58.70;;;;;;5071535;28;20229;-60
2023/06/19 11:07:53;;;;;;;2.33;2.13;;;33.00;58.80;;;;;;5071240;28;20244;-59
2023/06/19 11:10:23;;;;;;;2.38;2.17;;;33.20;58.50;;;;;;5071678;28;20212;-59
2023/06/19 11:12:50;;;;;;;9.32;2.38;;;33.20;58.80;;;;;;5071278;28;20250;-60
2023/06/19 11:15:17;;;;;;;2.90;2.60;;;33.00;59.10;;;;;;5070946;28;20602;-59
2023/06/19 11:17:44;;;;;;;2.97;2.33;;;33.10;59.20;;;;;;5070982;28;20228;-60
2023/06/19 11:20:12;;;;;;;2.40;2.20;;;33.20;58.90;;;;;;5071372;28;20216;-60
2023/06/19 11:22:42;;;;;;;2.85;2.28;;;33.20;58.90;;;;;;5071128;28;20678;-59
2023/06/19 11:25:11;;;;;;;3.05;2.20;;;33.00;59.30;;;;;;5071362;28;20237;-59
2023/06/19 11:27:40;;;;;;;3.15;2.33;;;32.80;60.30;;;;;;5071082;28;20204;-60
2023/06/19 11:30:09;;;;;;;2.92;2.42;;;32.60;60.30;;;;;;5071606;28;20231;-63
2023/06/19 11:32:40;;;;;;;7.30;2.40;;;32.50;60.50;;;;;;5070916;28;20434;-67
2023/06/19 11:35:10;;;;;;;2.50;2.30;;;32.30;60.60;;;;;;5071255;28;20312;-63
2023/06/19 11:37:38;;;;;;;4.60;2.30;;;32.30;60.60;;;;;;5071295;28;20319;-61
2023/06/19 11:40:12;;;;;;;2.90;2.50;;;32.30;60.80;;;;;;5075329;28;20208;-63
2023/06/19 11:42:53;;;;;;;2.45;2.25;;;32.20;59.90;;;;;;5075164;28;20738;-67
2023/06/19 11:45:20;;;;;;;2.30;2.00;;;32.20;60.50;;;;;;5075199;28;20225;-62
2023/06/19 11:47:47;;;;;;;3.08;2.08;;;32.40;60.30;;;;;;5074972;28;20197;-62
2023/06/19 11:50:15;;;;;;;2.97;2.00;;;32.50;60.60;;;;;;5075174;28;20211;-63
2023/06/19 11:52:43;;;;;;;2.20;2.00;;;32.50;60.20;;;;;;5075242;28;20662;-62
2023/06/19 11:55:11;;;;;;;2.58;2.38;;;32.70;60.40;;;;;;5075056;28;20231;-62
2023/06/19 11:57:40;;;;;;;2.63;2.38;;;32.70;60.20;;;;;;5075085;28;20224;-62
2023/06/19 12:00:14;;;;;;;2.28;2.08;;;32.60;60.00;;;;;;5075252;28;20212;-62
2023/06/19 12:02:41;;;;;;;2.33;2.03;;;32.60;60.30;;;;;;5074925;28;20219;-64
2023/06/19 12:05:09;;;;;;;2.38;2.17;;;32.70;59.60;;;;;;5075146;28;20663;-66
2023/06/19 12:07:37;;;;;;;3.25;2.30;;;32.70;59.70;;;;;;5074182;28;20525;-63
2023/06/19 12:10:09;;;;;;;3.83;2.30;;;32.70;59.50;;;;;;5073661;28;20433;-62
2023/06/19 12:12:38;;;;;;;2.60;2.40;;;32.70;59.60;;;;;;5074899;28;20896;-63
2023/06/19 12:15:06;;;;;;;2.30;2.10;;;32.90;59.20;;;;;;5074854;28;20229;-64
2023/06/19 12:17:33;;;;;;;2.80;2.42;;;33.30;58.30;;;;;;5069343;28;20450;-62
2023/06/19 12:20:00;;;;;;;2.20;2.03;;;33.50;57.90;;;;;;5074027;28;20237;-61
2023/06/19 12:22:27;;;;;;;2.30;2.10;;;33.80;58.00;;;;;;5074690;28;20204;-63
2023/06/19 12:24:54;;;;;;;2.38;2.17;;;34.00;57.90;;;;;;5074521;28;20294;-61
2023/06/19 12:27:21;;;;;;;3.30;2.22;;;34.20;57.80;;;;;;5073748;28;20289;-62
2023/06/19 12:29:49;;;;;;;2.55;2.20;;;34.30;57.90;;;;;;5074218;28;20583;-61
2023/06/19 12:32:16;;;;;;;2.33;2.13;;;34.40;57.30;;;;;;5073871;28;20215;-60
2023/06/19 12:34:46;;;;;;;2.33;2.13;;;34.60;57.20;;;;;;5074394;28;20248;-61
2023/06/19 12:37:13;;;;;;;2.40;2.20;;;34.50;57.40;;;;;;5073812;28;20208;-61
2023/06/19 12:39:41;;;;;;;3.63;2.30;;;34.40;57.00;;;;;;5074100;28;20633;-61
2023/06/19 12:42:08;;;;;;;2.60;2.20;;;34.10;57.30;;;;;;5074041;28;20583;-60
2023/06/19 12:44:35;;;;;;;3.35;2.40;;;33.80;57.60;;;;;;5074045;28;20236;-59
2023/06/19 12:47:04;;;;;;;2.30;2.10;;;33.60;58.10;;;;;;5074199;28;20232;-59
2023/06/19 12:49:31;;;;;;;3.20;2.10;;;33.70;58.40;;;;;;5073497;28;20631;-59